Terminal Aerodrome Forecast
Issued by NWS Atlanta, GA

Home | Current Version | Previous Version | Text Only | Print | Product List | Glossary On
Versions: 1 2 3 4 5 6 7 8 9 10 11 12 13
000
FTUS42 KFFC 011134
TAFMCN
TAF
KMCN 011134Z 0112/0212 12003KT P6SM SCT150
     FM011300 14005KT P6SM SCT050 BKN120
     FM011600 17008KT P6SM OVC025
     FM012100 17008KT P6SM -RA OVC025
     FM012300 18006KT 5SM -RA BR OVC015
     FM020500 19012KT 4SM -SHRA OVC008=

USA.gov is the U.S. government's official web portal to all federal, state and local government web resources and services.